Edinburgh, IN (46124)

9:50 PM EDT on September 15, 2014 (GMT -0400)
Edinburgh East | Change Station
CLOSE
Current Station
Personal Weather Station
Location: Edinburgh, IN
Elevation: 817 ft
Nearby Weather Stations

Elev 817 ft 39.36 °N, 85.91 °W | Updated 5 seconds ago

Overcast
Overcast
57.9 °F
Feels Like 57.9 °F
N
2.0
Wind Variable Wind from SSE
Gusts 3.0 mph

Today
High -- | Low -- °F
--% Chance of Precip.
Yesterday
High -- | Low -- °F
Precip. -- in
7:25 AM 7:52 PM
Waning Gibbous, 50% visible
Pressure 30.11 in
Visibility 5.0 miles
Clouds Overcast 4200 ft
Dew Point 57 °F
Humidity 97%
Rainfall 0.33 in
Snow Depth Not available.
UV 0 out of 12
Pollen 5.60 out of 12
Ozone Good
PM2.5 Moderate
Flu Activity Not available.
METAR K1II 160135Z AUTO 36003KT 5SM RA OVC042 15/13 A3011 RMK AO2

More Conditions Fewer Conditions

Pressure 30.11 in
Visibility 5.0 miles
Clouds Overcast 4200 ft
Dew Point 57 °F
Humidity 97%
Rainfall 0.33 in
Snow Depth Not available.
UV 0 out of 12
Pollen 5.60 out of 12
Ozone Good
PM2.5 Moderate
Flu Activity Not available.
METAR K1II 160135Z AUTO 36003KT 5SM RA OVC042 15/13 A3011 RMK AO2

More Conditions Fewer Conditions

10-Day Weather Forecast

Almanac

Astronomy

Sep. 15, 2014 Rise Set
Actual Time 7:25 AM EDT 7:52 PM EDT
Civil Twilight 6:58 AM EDT 8:19 PM EDT
Nautical Twilight 6:26 AM EDT 8:50 PM EDT
Astronomical Twilight 5:54 AM EDT 9:23 PM EDT
Moon No Moon Rise 2:22 PM EDT (9/15)
Length of Visible Light 13h 21m
Length of Day
12h 27m
Tomorrow will be 2m 32s shorter.
Waning Gibbous, 50% of the Moon is Illuminated
Today
Waning Gibbous
Sep 15
Last Quarter
Sep 24
New
Oct 1
First Quarter
Oct 8
Full

Community

WunderPhotos

Upload Photos

1,753,643 photos uploaded!

WunderBlogs® & News

Nearby

Air Quality

  Air Quality AQ Index Pollutant
Yesterday Moderate
PM2.5
Yesterday Good
OZONE
Current Moderate
PM2.5
Current Good
OZONE
Monday Moderate
PM2.5
Monday Good
OZONE
Tuesday Good
PM2.5
Tuesday Good
OZONE
Wednesday Moderate
PM2.5
Wednesday Good
OZONE
Thursday Moderate
PM2.5
Thursday Good
OZONE

Snow Depth

Station Depth Elevation
No new snow has been reported.

Earthquake Activity

City Distance Mag. Time & Date
No recent earthquake activity has been reported nearby.
Minimum magnitude displayed is 2.5.

Coastal Water Temperatures

Place Temperature
No Stations Reporting

Nearby Weather Stations